Time;durP1;ratioP1;P1;durP2;ratioP2;P2;SDS_P1;SDS_P2;PMS_P1;PMS_P2;Temp;Humidity;BMP_temperature;BMP_pressure;BME280_temperature;BME280_humidity;BME280_pressure;Samples;Min_cycle;Max_cycle;Signal;HPM_P1;HPM_P2
2022/03/27 00:01:06;;;;;;;12.40;9.03;;;;;;;8.99;52.36;95769.25;5033257;28;20431;-77
2022/03/27 00:03:35;;;;;;;17.10;8.73;;;;;;;8.98;52.73;95767.56;5032215;28;20502;-77
2022/03/27 00:06:02;;;;;;;19.80;9.87;;;;;;;8.93;52.46;95769.59;5035197;28;20938;-78
2022/03/27 00:08:29;;;;;;;21.30;9.87;;;;;;;8.85;53.19;95758.81;5036578;28;20442;-77
2022/03/27 00:13:40;;;;;;;13.17;8.93;;;;;;;8.86;52.94;95757.88;5036890;28;20486;-77
2022/03/27 00:16:09;;;;;;;15.43;10.17;;;;;;;8.89;53.21;95757.66;5018369;28;20489;-78
2022/03/27 00:18:37;;;;;;;15.20;9.03;;;;;;;8.83;53.50;95748.44;5037509;28;20437;-78
2022/03/27 00:21:05;;;;;;;19.73;10.43;;;;;;;8.81;53.47;95752.09;5036625;28;20443;-77
2022/03/27 00:23:32;;;;;;;23.40;10.73;;;;;;;8.75;53.28;95750.72;5037311;28;20483;-78
2022/03/27 00:25:58;;;;;;;25.17;11.77;;;;;;;8.73;53.07;95755.19;5036936;28;20431;-77
2022/03/27 00:28:31;;;;;;;16.33;10.17;;;;;;;8.69;52.99;95751.94;5018478;28;20437;-78
2022/03/27 00:30:59;;;;;;;19.37;11.10;;;;;;;8.73;53.01;95756.97;5036922;28;20450;-77
2022/03/27 00:33:26;;;;;;;19.60;11.20;;;;;;;8.66;53.27;95736.41;5036573;28;20450;-78
2022/03/27 00:35:55;;;;;;;20.27;10.10;;;;;;;8.67;53.53;95743.34;5037133;28;20426;-77
2022/03/27 00:38:21;;;;;;;17.23;9.50;;;;;;;8.63;53.88;95734.00;5018159;28;20438;-78
2022/03/27 00:40:50;;;;;;;19.03;10.80;;;;;;;8.56;54.39;95744.94;5036687;28;20779;-77
2022/03/27 00:43:17;;;;;;;22.07;10.90;;;;;;;8.44;55.01;95738.72;5036275;28;20953;-77
2022/03/27 00:45:44;;;;;;;21.20;10.33;;;;;;;8.26;55.00;95738.06;5036087;28;20449;-77
2022/03/27 00:48:11;;;;;;;20.03;10.93;;;;;;;8.17;55.70;95729.97;5036694;28;20800;-77
2022/03/27 00:50:38;;;;;;;18.97;10.97;;;;;;;8.13;55.31;95725.84;5017884;28;20848;-77
2022/03/27 00:53:07;;;;;;;19.53;10.63;;;;;;;8.06;56.13;95726.22;5036200;28;20922;-77
2022/03/27 00:55:34;;;;;;;19.23;10.40;;;;;;;8.03;56.55;95731.63;5036231;28;20487;-77
2022/03/27 00:58:01;;;;;;;16.43;10.30;;;;;;;8.08;56.21;95723.50;5035988;28;20496;-78
2022/03/27 01:00:50;;;;;;;15.03;9.30;;;;;;;8.14;56.11;95715.31;5036075;28;20459;-78
2022/03/27 01:03:20;;;;;;;17.67;9.63;;;;;;;8.18;55.82;95713.34;5035962;28;20834;-77
2022/03/27 01:05:48;;;;;;;17.37;8.87;;;;;;;8.20;55.87;95714.06;5036158;28;20435;-77
2022/03/27 01:09:35;;;;;;;14.20;10.10;;;;;;;8.21;55.45;95718.38;5036127;28;20450;-77
2022/03/27 01:11:13;;;;;;;15.63;8.93;;;;;;;8.25;54.86;95717.25;5035722;28;20431;-78
2022/03/27 01:13:43;;;;;;;17.40;12.33;;;;;;;8.11;55.59;95712.03;5035995;28;20445;-78
2022/03/27 01:16:16;;;;;;;19.80;12.10;;;;;;;8.02;55.27;95718.66;5034759;28;20440;-77
2022/03/27 01:18:43;;;;;;;15.73;12.00;;;;;;;8.04;55.55;95711.56;5036244;28;20438;-78
2022/03/27 01:21:12;;;;;;;21.50;12.40;;;;;;;8.00;56.36;95710.91;5036027;28;20427;-78
2022/03/27 01:40:29;;;;;;;37.13;17.80;;;;;;;7.47;58.18;95717.59;5034123;28;20434;-79
2022/03/27 01:42:56;;;;;;;29.20;17.60;;;;;;;7.41;58.30;95712.75;5035009;28;20439;-79
2022/03/27 01:45:23;;;;;;;33.33;18.63;;;;;;;7.26;58.26;95726.72;5035250;28;20477;-78
2022/03/27 01:47:51;;;;;;;29.53;17.87;;;;;;;7.26;58.16;95728.50;5016811;28;20443;-79
2022/03/27 01:50:18;;;;;;;27.13;17.80;;;;;;;7.24;58.93;95719.91;5035367;28;20519;-78
2022/03/27 01:52:45;;;;;;;25.93;16.50;;;;;;;7.31;58.30;95721.22;5035567;28;20433;-78
2022/03/27 01:55:16;;;;;;;26.70;15.03;;;;;;;7.34;59.07;95727.09;5034985;28;20558;-77
2022/03/27 01:57:44;;;;;;;34.07;17.00;;;;;;;7.35;58.64;95725.34;5001153;28;20481;-78
2022/03/27 02:00:14;;;;;;;32.20;16.53;;;;;;;7.34;58.63;95721.88;5034939;28;20816;-78
2022/03/27 02:02:41;;;;;;;23.80;12.93;;;;;;;7.28;58.68;95711.81;5035086;28;20532;-77
2022/03/27 02:05:09;;;;;;;23.53;15.30;;;;;;;7.26;59.26;95726.72;5034996;28;20486;-78
2022/03/27 02:07:37;;;;;;;22.40;13.53;;;;;;;7.22;59.35;95719.13;4968354;28;20450;-77
2022/03/27 02:10:06;;;;;;;25.13;12.20;;;;;;;7.18;59.16;95721.09;5035091;28;20435;-77
2022/03/27 02:12:34;;;;;;;18.10;9.90;;;;;;;7.19;58.70;95727.13;5034992;28;20438;-78
2022/03/27 02:15:04;;;;;;;14.03;10.23;;;;;;;7.14;59.02;95724.81;5034955;28;20443;-79
2022/03/27 02:17:31;;;;;;;11.93;9.20;;;;;;;7.13;59.52;95726.56;5034999;28;20889;-79
2022/03/27 02:20:00;;;;;;;16.17;10.33;;;;;;;7.16;58.92;95725.56;5034668;28;20449;-77
2022/03/27 02:22:26;;;;;;;17.10;10.27;;;;;;;7.22;59.30;95726.97;5034380;28;20435;-77
2022/03/27 02:24:53;;;;;;;15.20;10.87;;;;;;;7.25;59.26;95722.44;5034395;28;20957;-78
2022/03/27 02:27:20;;;;;;;15.50;10.43;;;;;;;7.28;58.94;95732.69;5033999;28;20908;-77
2022/03/27 02:29:47;;;;;;;18.77;10.67;;;;;;;7.33;58.72;95725.44;5034343;28;20922;-78
2022/03/27 02:32:15;;;;;;;15.07;10.90;;;;;;;7.31;58.54;95722.06;5035008;28;20438;-78
2022/03/27 02:34:42;;;;;;;19.47;11.93;;;;;;;7.33;58.49;95733.25;5034073;28;20442;-78
2022/03/27 02:37:09;;;;;;;17.60;11.13;;;;;;;7.28;59.35;95730.06;5034075;28;20501;-77
2022/03/27 02:39:36;;;;;;;20.00;10.50;;;;;;;7.28;59.36;95732.69;5034645;28;20772;-77
2022/03/27 02:42:03;;;;;;;16.97;10.17;;;;;;;7.29;58.33;95733.53;5034785;28;20435;-78
2022/03/27 02:44:30;;;;;;;20.20;10.30;;;;;;;7.20;59.31;95734.88;5034062;28;21015;-78
2022/03/27 02:46:57;;;;;;;15.30;10.10;;;;;;;7.14;59.06;95743.91;5034249;28;20439;-78
2022/03/27 02:49:25;;;;;;;16.00;9.97;;;;;;;7.05;58.86;95741.00;5034397;28;20441;-78
2022/03/27 02:51:52;;;;;;;20.93;10.30;;;;;;;7.09;59.38;95748.56;5034161;28;20797;-78
2022/03/27 02:54:19;;;;;;;18.20;10.10;;;;;;;7.08;59.27;95740.81;5034015;28;20774;-78
2022/03/27 02:56:46;;;;;;;13.23;10.27;;;;;;;7.11;59.22;95757.13;5034170;28;20432;-78
2022/03/27 02:59:14;;;;;;;14.13;8.77;;;;;;;7.07;59.06;95758.25;5034154;28;21168;-78
2022/03/27 03:01:41;;;;;;;24.23;9.50;;;;;;;7.02;59.46;95736.81;4999456;28;20521;-78
2022/03/27 03:04:08;;;;;;;17.03;8.53;;;;;;;7.11;59.37;95753.69;5034376;28;20505;-78
2022/03/27 03:06:37;;;;;;;18.73;9.83;;;;;;;7.12;59.86;95763.19;5034381;28;20454;-79
2022/03/27 03:09:04;;;;;;;19.07;8.90;;;;;;;7.10;59.95;95759.84;5034204;28;20435;-78
2022/03/27 03:11:31;;;;;;;18.27;10.40;;;;;;;7.12;59.18;95765.81;5033580;28;20438;-78
2022/03/27 03:14:08;;;;;;;11.77;8.33;;;;;;;7.15;59.03;95757.81;5033758;28;20446;-77
2022/03/27 03:16:35;;;;;;;16.07;9.40;;;;;;;7.15;59.18;95752.59;4998976;28;20438;-78
2022/03/27 03:19:03;;;;;;;15.77;8.50;;;;;;;7.19;58.58;95758.47;5033787;28;20442;-78
2022/03/27 03:21:30;;;;;;;17.53;8.77;;;;;;;7.18;59.28;95749.78;5033924;28;20449;-77
2022/03/27 03:23:59;;;;;;;17.43;9.30;;;;;;;7.15;59.47;95752.59;4998898;28;20449;-79
2022/03/27 03:26:26;;;;;;;15.77;8.77;;;;;;;7.13;59.08;95752.66;5033825;28;20439;-78
2022/03/27 03:28:52;;;;;;;13.07;10.13;;;;;;;7.15;59.82;95756.03;4998769;28;20447;-78
2022/03/27 03:31:19;;;;;;;20.33;8.47;;;;;;;7.09;59.47;95747.72;5033323;28;20517;-78
2022/03/27 03:37:08;;;;;;;26.20;11.10;;;;;;;7.00;60.12;95753.47;5033351;28;20765;-78
2022/03/27 03:39:36;;;;;;;21.43;10.90;;;;;;;6.93;60.10;95754.72;5032707;28;20906;-79
2022/03/27 03:42:04;;;;;;;15.97;9.13;;;;;;;6.87;60.29;95752.47;5033294;28;20450;-77
2022/03/27 03:44:31;;;;;;;22.90;10.30;;;;;;;6.81;60.81;95751.91;4998764;28;20478;-78
2022/03/27 03:46:57;;;;;;;14.90;9.80;;;;;;;6.79;60.80;95756.34;5033514;28;20854;-78
2022/03/27 03:49:25;;;;;;;25.20;10.13;;;;;;;6.79;60.48;95756.34;5033725;28;20434;-77
2022/03/27 03:51:52;;;;;;;17.30;10.37;;;;;;;6.81;60.54;95764.09;5032975;28;20946;-77
2022/03/27 03:54:19;;;;;;;17.07;10.03;;;;;;;6.81;60.65;95753.66;5033023;28;20431;-78
2022/03/27 03:56:47;;;;;;;17.77;11.10;;;;;;;6.86;61.00;95759.47;5032417;28;20446;-78
2022/03/27 03:59:15;;;;;;;17.73;9.13;;;;;;;6.83;61.02;95768.28;5032277;28;20451;-78
2022/03/27 04:01:42;;;;;;;17.23;10.03;;;;;;;6.77;60.44;95760.81;5014670;28;20817;-77
2022/03/27 04:04:09;;;;;;;17.50;10.43;;;;;;;6.77;61.15;95771.25;5033178;28;21030;-78
2022/03/27 04:06:36;;;;;;;20.60;10.70;;;;;;;6.81;60.33;95761.50;5014598;28;20446;-78
2022/03/27 04:09:03;;;;;;;17.40;9.97;;;;;;;6.80;60.79;95768.47;5032486;28;20451;-78
2022/03/27 04:11:30;;;;;;;17.80;10.07;;;;;;;6.74;60.54;95771.44;5032731;28;20447;-78
2022/03/27 04:13:58;;;;;;;14.83;10.90;;;;;;;6.74;61.42;95781.03;5032808;28;20430;-78
2022/03/27 04:16:26;;;;;;;19.97;11.93;;;;;;;6.74;60.83;95786.25;5032433;28;20451;-78
2022/03/27 04:18:53;;;;;;;13.67;8.03;;;;;;;6.71;60.89;95782.03;5014221;28;20496;-78
2022/03/27 04:21:20;;;;;;;21.63;11.67;;;;;;;6.70;60.70;95782.13;5014018;28;20801;-78
2022/03/27 04:23:46;;;;;;;30.43;11.17;;;;;;;6.68;60.53;95778.75;5032469;28;20836;-79
2022/03/27 04:26:13;;;;;;;23.60;9.53;;;;;;;6.71;61.54;95784.66;5032741;28;20482;-78
2022/03/27 04:28:40;;;;;;;12.70;9.37;;;;;;;6.77;60.80;95789.50;5032798;28;20454;-78
2022/03/27 04:31:08;;;;;;;18.80;9.33;;;;;;;6.82;60.65;95792.69;5032319;28;20442;-78
2022/03/27 04:33:35;;;;;;;14.80;9.20;;;;;;;7.00;60.86;95793.47;5032692;28;20461;-80
2022/03/27 04:36:04;;;;;;;17.43;8.77;;;;;;;7.30;61.52;95790.88;5032281;28;20450;-83
2022/03/27 04:38:31;;;;;;;21.80;8.40;;;;;;;7.64;59.03;95792.34;5032800;28;20434;-78
2022/03/27 04:40:58;;;;;;;13.80;9.30;;;;;;;8.03;57.24;95796.97;5032926;28;20441;-78
2022/03/27 04:43:26;;;;;;;19.67;9.67;;;;;;;8.48;55.69;95802.16;5032890;28;20443;-78
2022/03/27 04:45:52;;;;;;;21.43;9.00;;;;;;;8.96;54.31;95798.19;5033349;28;20470;-78
2022/03/27 04:48:21;;;;;;;20.63;8.70;;;;;;;9.48;52.90;95800.06;5032678;28;20458;-78
2022/03/27 04:50:48;;;;;;;16.03;8.90;;;;;;;9.80;51.30;95803.16;5033383;28;20446;-77
2022/03/27 04:53:14;;;;;;;14.27;8.57;;;;;;;10.00;51.89;95799.22;5040636;28;20436;-77
2022/03/27 04:55:41;;;;;;;12.53;8.90;;;;;;;10.19;50.06;95800.47;5056636;28;20448;-77
2022/03/27 04:58:09;;;;;;;17.53;8.70;;;;;;;10.41;49.86;95807.75;5056792;28;20963;-77
2022/03/27 05:00:37;;;;;;;19.33;10.60;;;;;;;10.63;48.80;95814.09;5055881;28;20442;-78
2022/03/27 05:03:04;;;;;;;14.30;9.57;;;;;;;10.77;48.64;95821.84;5056048;28;20477;-78
2022/03/27 05:05:33;;;;;;;22.73;11.40;;;;;;;10.99;47.90;95818.56;5056215;28;20485;-79
2022/03/27 05:08:00;;;;;;;16.50;10.27;;;;;;;11.20;46.58;95829.28;5056208;28;20450;-78
2022/03/27 05:10:27;;;;;;;24.10;11.43;;;;;;;11.52;47.41;95821.69;5056063;28;20442;-78
2022/03/27 05:12:54;;;;;;;19.03;10.40;;;;;;;11.93;47.71;95831.81;5055852;28;20948;-78
2022/03/27 05:15:21;;;;;;;18.00;10.23;;;;;;;12.44;45.09;95834.91;5020749;28;20768;-78
2022/03/27 05:17:50;;;;;;;14.23;9.03;;;;;;;12.62;45.82;95835.25;5055700;28;20575;-77
2022/03/27 05:20:17;;;;;;;22.30;12.93;;;;;;;12.61;45.22;95837.03;5055939;28;20456;-78
2022/03/27 05:22:46;;;;;;;17.10;11.80;;;;;;;12.85;44.09;95834.28;5056115;28;20475;-76
2022/03/27 05:25:13;;;;;;;16.77;10.87;;;;;;;13.11;42.31;95837.50;5055314;28;20976;-78
2022/03/27 05:27:45;;;;;;;686.03;459.17;;;;;;;14.56;51.19;95836.09;5055626;28;20441;-78
2022/03/27 05:30:12;;;;;;;25.00;14.02;;;;;;;15.19;39.30;95836.75;5054771;28;20440;-78
2022/03/27 05:32:39;;;;;;;22.43;11.87;;;;;;;15.42;37.99;95830.28;5055492;28;20207;-78
2022/03/27 05:35:07;;;;;;;19.77;12.87;;;;;;;15.37;38.73;95821.09;5055429;28;20450;-78
2022/03/27 05:37:38;;;;;;;22.23;11.17;;;;;;;15.34;38.26;95832.78;5035097;28;20965;-78
2022/03/27 05:40:10;;;;;;;15.87;10.70;;;;;;;15.36;38.56;95835.28;5042336;28;20457;-78
2022/03/27 05:42:37;;;;;;;16.07;11.20;;;;;;;15.40;38.22;95831.41;5035782;28;20459;-78
2022/03/27 05:45:05;;;;;;;15.40;10.70;;;;;;;15.40;38.17;95842.81;5035141;28;20486;-76
2022/03/27 05:47:32;;;;;;;15.00;9.97;;;;;;;15.31;38.43;95835.66;5035632;28;20477;-75
2022/03/27 05:50:00;;;;;;;12.47;9.40;;;;;;;15.43;38.14;95839.06;5034836;28;20453;-78
2022/03/27 05:52:28;;;;;;;15.70;9.83;;;;;;;15.47;37.54;95838.63;5035531;28;20927;-78
2022/03/27 05:54:54;;;;;;;14.80;9.17;;;;;;;15.57;37.47;95848.38;5035191;28;20442;-78
2022/03/27 05:57:23;;;;;;;18.83;8.23;;;;;;;15.75;36.15;95846.78;5034873;28;20431;-78
2022/03/27 05:59:50;;;;;;;13.67;9.40;;;;;;;15.70;36.19;95843.72;5048444;28;20489;-79
2022/03/27 06:02:17;;;;;;;19.10;11.10;;;;;;;15.67;35.37;95844.00;5052131;28;20480;-79
2022/03/27 06:04:43;;;;;;;14.47;10.60;;;;;;;15.77;36.21;95842.19;5034306;28;20449;-79
2022/03/27 06:07:13;;;;;;;17.80;10.50;;;;;;;15.81;36.37;95840.94;5053319;28;20473;-78
2022/03/27 06:09:40;;;;;;;21.93;11.57;;;;;;;15.13;35.17;95834.66;5053397;28;20521;-78
2022/03/27 06:12:08;;;;;;;17.43;13.70;;;;;;;15.15;37.23;95852.06;5052982;28;20475;-78
2022/03/27 06:14:36;;;;;;;24.43;13.07;;;;;;;15.07;36.95;95851.91;5019058;28;20437;-78
2022/03/27 06:17:04;;;;;;;26.10;13.30;;;;;;;14.95;37.07;95846.84;5054459;28;20442;-77
2022/03/27 06:19:31;;;;;;;22.90;11.90;;;;;;;15.09;36.29;95843.84;5054284;28;20881;-79
2022/03/27 06:21:58;;;;;;;17.33;11.03;;;;;;;15.28;35.81;95837.75;5054235;28;20494;-77
2022/03/27 06:24:25;;;;;;;19.63;12.27;;;;;;;15.09;36.19;95851.78;5054243;28;20454;-78
2022/03/27 06:26:52;;;;;;;22.13;12.40;;;;;;;15.02;36.35;95847.97;5054249;28;20552;-78
2022/03/27 06:29:21;;;;;;;21.07;11.90;;;;;;;15.13;36.34;95842.59;5054548;28;20476;-79
2022/03/27 06:31:50;;;;;;;23.27;11.60;;;;;;;15.24;35.90;95842.47;5054182;28;20434;-76
2022/03/27 06:34:17;;;;;;;21.50;12.47;;;;;;;15.12;35.85;95841.75;5054414;28;20452;-78
2022/03/27 06:36:44;;;;;;;17.70;12.80;;;;;;;15.38;35.84;95846.56;5054073;28;20913;-77
2022/03/27 06:39:12;;;;;;;22.77;12.83;;;;;;;15.70;35.94;95849.84;5054185;28;20953;-77
2022/03/27 06:41:39;;;;;;;21.93;12.13;;;;;;;15.80;35.61;95848.03;5053967;28;20441;-78
2022/03/27 06:44:06;;;;;;;22.07;12.33;;;;;;;16.16;35.20;95850.94;5054827;28;20442;-79
2022/03/27 06:46:33;;;;;;;19.43;11.37;;;;;;;16.23;34.65;95844.13;5053778;28;20469;-79
2022/03/27 06:49:01;;;;;;;21.60;12.47;;;;;;;16.62;34.59;95844.06;5054223;28;20528;-79
2022/03/27 06:51:28;;;;;;;22.03;10.40;;;;;;;16.51;34.25;95845.06;5053922;28;20442;-81
2022/03/27 06:53:55;;;;;;;19.70;11.57;;;;;;;16.36;34.88;95854.44;5054099;28;20426;-78
2022/03/27 06:56:22;;;;;;;22.13;11.80;;;;;;;16.37;34.67;95853.44;5054104;28;20435;-78
2022/03/27 06:58:49;;;;;;;14.87;10.80;;;;;;;16.19;34.39;95861.28;5055016;28;20438;-79
2022/03/27 07:04:02;;;;;;;26.63;11.87;;;;;;;16.23;34.06;95859.19;5054052;28;20530;-78
2022/03/27 07:06:28;;;;;;;21.27;10.60;;;;;;;15.92;34.28;95861.16;5053674;28;21052;-77
2022/03/27 07:08:56;;;;;;;20.20;11.33;;;;;;;16.25;33.87;95867.84;5053617;28;20442;-80
2022/03/27 07:11:23;;;;;;;23.67;11.47;;;;;;;16.30;33.63;95863.78;5053495;28;20496;-79
2022/03/27 07:13:50;;;;;;;25.60;11.63;;;;;;;16.22;34.07;95863.66;5053502;28;20435;-79
2022/03/27 07:16:17;;;;;;;20.00;11.90;;;;;;;16.36;33.75;95865.84;5053660;28;20457;-77
2022/03/27 07:18:49;;;;;;;24.47;11.53;;;;;;;16.14;34.25;95863.50;5053437;28;20460;-79
2022/03/27 07:21:17;;;;;;;30.97;12.07;;;;;;;16.39;35.10;95865.56;5034903;28;20496;-76
2022/03/27 07:23:45;;;;;;;29.03;12.73;;;;;;;16.66;34.15;95859.56;5053786;28;20438;-79
2022/03/27 07:26:12;;;;;;;19.33;11.90;;;;;;;16.96;33.46;95852.34;5053159;28;20607;-78
2022/03/27 07:28:39;;;;;;;20.80;11.40;;;;;;;17.01;32.89;95847.44;5053668;28;20430;-78
2022/03/27 07:31:06;;;;;;;26.43;12.20;;;;;;;17.19;32.42;95847.50;5053262;28;20448;-79
2022/03/27 07:33:33;;;;;;;24.63;12.10;;;;;;;17.43;31.99;95844.31;5035270;28;20425;-77
2022/03/27 07:36:00;;;;;;;18.80;12.30;;;;;;;17.63;31.93;95845.84;5053878;28;20435;-78
2022/03/27 07:38:28;;;;;;;26.23;13.97;;;;;;;17.83;32.42;95854.53;5053094;28;20421;-79
2022/03/27 07:40:55;;;;;;;19.30;12.63;;;;;;;17.70;32.18;95849.63;5053237;28;20438;-79
2022/03/27 07:43:22;;;;;;;25.27;12.80;;;;;;;17.81;31.46;95852.03;5053613;28;20446;-79
2022/03/27 07:45:49;;;;;;;17.63;12.50;;;;;;;17.89;31.49;95844.16;5052952;28;20481;-79
2022/03/27 07:48:16;;;;;;;20.60;11.93;;;;;;;18.14;31.29;95833.75;5053515;28;20469;-79
2022/03/27 07:50:44;;;;;;;21.77;13.03;;;;;;;18.42;31.12;95829.16;5053369;28;20449;-79
2022/03/27 07:53:11;;;;;;;28.03;13.30;;;;;;;18.46;30.65;95827.84;5053223;28;20461;-78
2022/03/27 07:55:39;;;;;;;24.30;13.70;;;;;;;18.43;30.49;95820.19;5052424;28;20895;-78
2022/03/27 07:58:06;;;;;;;27.13;13.67;;;;;;;18.39;31.34;95830.31;5053355;28;20912;-79
2022/03/27 08:00:33;;;;;;;22.37;13.03;;;;;;;18.35;31.51;95825.47;5040739;28;20894;-78
2022/03/27 08:03:00;;;;;;;21.50;14.80;;;;;;;18.40;31.77;95828.47;5014816;28;20486;-78
2022/03/27 08:05:30;;;;;;;26.20;17.03;;;;;;;18.54;30.87;95828.75;5035941;28;20447;-78
2022/03/27 08:07:57;;;;;;;36.63;15.00;;;;;;;18.72;30.70;95826.06;5053921;28;20453;-78
2022/03/27 08:10:24;;;;;;;31.83;18.50;;;;;;;18.68;30.31;95821.22;5051195;28;20487;-78
2022/03/27 08:12:52;;;;;;;29.20;16.10;;;;;;;18.65;30.67;95822.38;5050549;28;20462;-78
2022/03/27 08:15:20;;;;;;;26.27;16.77;;;;;;;18.50;30.15;95819.44;5053695;28;20436;-80
2022/03/27 08:17:47;;;;;;;26.00;16.30;;;;;;;18.72;30.24;95820.75;5053476;28;20449;-78
2022/03/27 08:20:14;;;;;;;29.40;15.07;;;;;;;18.87;29.97;95813.03;5053197;28;20441;-78
2022/03/27 08:22:41;;;;;;;20.70;14.73;;;;;;;18.95;29.49;95814.91;5052747;28;20455;-78
2022/03/27 08:25:09;;;;;;;20.90;15.80;;;;;;;19.04;29.01;95817.41;5052886;28;20975;-78
2022/03/27 08:27:35;;;;;;;26.87;14.53;;;;;;;18.99;29.21;95809.09;5053551;28;20489;-78
2022/03/27 08:30:06;;;;;;;26.00;14.00;;;;;;;18.83;28.46;95796.56;5021942;28;20507;-78
2022/03/27 08:32:32;;;;;;;25.70;15.40;;;;;;;18.66;28.76;95800.13;5057030;28;20767;-78
2022/03/27 08:34:59;;;;;;;20.20;13.77;;;;;;;18.77;29.49;95793.69;5056627;28;20909;-77
2022/03/27 08:37:26;;;;;;;19.93;13.63;;;;;;;19.06;29.04;95786.16;5056596;28;20816;-78
2022/03/27 08:39:54;;;;;;;22.53;13.60;;;;;;;19.38;28.47;95792.63;5057076;28;20437;-78
2022/03/27 08:42:21;;;;;;;27.83;13.50;;;;;;;19.31;27.23;95799.56;5038022;28;20464;-79
2022/03/27 08:44:48;;;;;;;23.17;12.87;;;;;;;19.20;27.00;95787.41;5038013;28;20434;-79
2022/03/27 08:47:21;;;;;;;27.30;13.57;;;;;;;18.85;27.07;95793.75;5056546;28;20571;-79
2022/03/27 08:49:53;;;;;;;21.80;13.43;;;;;;;18.57;27.71;95793.88;5056630;28;20438;-78
2022/03/27 08:52:48;;;;;;;19.30;13.40;;;;;;;18.48;29.51;95789.50;5056398;28;20453;-79
2022/03/27 08:55:19;;;;;;;24.13;12.97;;;;;;;18.33;29.79;95779.59;5056306;28;20488;-76
2022/03/27 08:57:55;;;;;;;19.13;12.90;;;;;;;18.32;27.78;95776.13;5056430;28;20422;-78
2022/03/27 09:00:23;;;;;;;17.80;11.90;;;;;;;18.44;28.25;95782.81;5055924;28;20928;-78
2022/03/27 09:02:52;;;;;;;15.00;11.17;;;;;;;18.56;28.64;95778.94;5056165;28;21373;-78
2022/03/27 09:05:22;;;;;;;19.67;11.90;;;;;;;18.62;28.22;95776.63;5056141;28;20446;-78
2022/03/27 09:07:49;;;;;;;21.47;12.70;;;;;;;18.69;29.98;95778.53;5056062;28;20556;-78
2022/03/27 09:10:17;;;;;;;26.00;13.13;;;;;;;18.65;28.37;95787.81;5055972;28;20893;-77
2022/03/27 09:12:45;;;;;;;20.10;13.73;;;;;;;18.55;28.57;95777.28;5056095;28;20438;-79
2022/03/27 09:15:20;;;;;;;21.03;12.73;;;;;;;18.47;28.20;95771.03;5055711;28;20469;-78
2022/03/27 09:18:00;;;;;;;21.93;13.50;;;;;;;18.47;28.34;95765.72;5055984;28;20442;-78
2022/03/27 09:20:36;;;;;;;21.47;14.40;;;;;;;18.52;28.76;95760.81;5055891;28;20436;-78
2022/03/27 09:23:19;;;;;;;22.30;13.00;;;;;;;18.70;28.57;95761.59;5056351;28;20421;-79
2022/03/27 09:25:48;;;;;;;21.10;14.00;;;;;;;18.75;28.18;95775.22;5055142;28;20449;-78
2022/03/27 09:28:24;;;;;;;21.37;13.57;;;;;;;18.78;27.81;95763.44;5055055;28;20801;-78
2022/03/27 09:30:51;;;;;;;21.10;13.43;;;;;;;18.72;27.72;95754.28;5055567;28;20437;-78
2022/03/27 09:33:36;;;;;;;25.27;13.70;;;;;;;18.85;27.84;95751.19;5055779;28;20450;-78
2022/03/27 09:36:07;;;;;;;23.67;13.60;;;;;;;18.83;29.06;95737.22;5055152;28;20453;-79
2022/03/27 09:38:34;;;;;;;23.80;13.10;;;;;;;18.64;27.06;95745.44;5019988;28;20446;-78
2022/03/27 09:41:01;;;;;;;28.73;12.33;;;;;;;18.73;27.29;95752.44;5055646;28;20487;-79
2022/03/27 09:43:29;;;;;;;21.53;13.40;;;;;;;18.67;26.95;95751.25;5055158;28;20460;-79
2022/03/27 09:45:58;;;;;;;22.30;12.97;;;;;;;18.66;27.59;95744.28;5033529;28;21184;-78
2022/03/27 09:48:25;;;;;;;25.53;13.77;;;;;;;18.73;27.22;95747.13;5018938;28;21096;-79
2022/03/27 09:50:55;;;;;;;20.77;12.40;;;;;;;18.72;27.31;95750.78;5055509;28;20430;-79
2022/03/27 09:53:25;;;;;;;21.80;13.90;;;;;;;18.64;27.84;95756.91;5055307;28;20442;-79
2022/03/27 09:56:12;;;;;;;22.17;12.73;;;;;;;18.67;27.67;95748.59;5055312;28;20798;-79
2022/03/27 09:58:40;;;;;;;18.90;12.90;;;;;;;18.77;26.97;95748.47;5055141;28;20845;-78
2022/03/27 10:01:08;;;;;;;21.33;11.33;;;;;;;18.94;26.78;95747.56;5055502;28;20446;-78
2022/03/27 10:03:35;;;;;;;20.70;12.60;;;;;;;19.01;27.51;95758.38;5055715;28;20511;-78
2022/03/27 10:06:05;;;;;;;25.13;12.53;;;;;;;19.03;26.54;95735.94;5055316;28;20481;-79
2022/03/27 10:08:32;;;;;;;22.10;12.20;;;;;;;19.04;26.07;95739.44;5054769;28;20452;-79
2022/03/27 10:10:59;;;;;;;26.07;12.40;;;;;;;19.07;25.36;95731.13;5054803;28;20449;-78
2022/03/27 10:13:30;;;;;;;27.27;12.70;;;;;;;19.05;25.49;95738.44;5054779;28;20449;-79
2022/03/27 10:15:59;;;;;;;23.07;11.20;;;;;;;19.01;25.33;95715.81;5054577;28;20563;-78
2022/03/27 10:18:27;;;;;;;25.77;11.77;;;;;;;18.96;26.34;95723.47;5055158;28;20445;-79
2022/03/27 10:20:59;;;;;;;17.50;13.13;;;;;;;19.06;26.17;95719.66;5055017;28;20434;-79
2022/03/27 10:23:29;;;;;;;18.37;11.30;;;;;;;19.17;26.37;95714.06;5036234;28;20492;-78
2022/03/27 10:26:03;;;;;;;20.13;12.10;;;;;;;19.26;25.87;95711.41;5054886;28;20450;-78
2022/03/27 10:28:30;;;;;;;16.17;10.53;;;;;;;19.38;25.15;95704.78;5054680;28;20438;-78
2022/03/27 10:30:57;;;;;;;19.80;11.73;;;;;;;19.32;24.22;95700.09;5054707;28;20433;-77
2022/03/27 10:33:27;;;;;;;25.60;11.40;;;;;;;19.29;25.03;95701.25;5054188;28;20935;-77
2022/03/27 10:39:25;;;;;;;19.73;9.77;;;;;;;19.02;24.23;95696.22;5053174;28;20425;-77
2022/03/27 10:41:59;;;;;;;14.90;9.53;;;;;;;18.96;24.64;95705.69;5054489;28;20507;-76
2022/03/27 10:44:34;;;;;;;14.10;9.60;;;;;;;18.85;25.94;95687.38;5054320;28;20433;-77
2022/03/27 10:47:18;;;;;;;20.13;10.13;;;;;;;18.78;25.60;95704.94;5053838;28;20984;-77
2022/03/27 10:50:18;;;;;;;13.87;10.00;;;;;;;18.87;26.81;95690.69;5054127;28;20430;-77
2022/03/27 10:53:07;;;;;;;20.20;10.23;;;;;;;18.99;27.31;95688.56;5053992;28;20819;-77
2022/03/27 10:55:39;;;;;;;14.53;9.13;;;;;;;19.07;24.56;95681.41;5054346;28;20442;-79
2022/03/27 10:58:31;;;;;;;16.63;10.13;;;;;;;19.17;25.33;95679.47;5053802;28;20933;-79
2022/03/27 11:00:59;;;;;;;17.43;10.33;;;;;;;19.22;24.79;95688.78;5053610;28;20955;-78
2022/03/27 11:04:05;;;;;;;21.50;11.47;;;;;;;19.21;24.75;95681.78;5053537;28;20488;-80
2022/03/27 11:06:33;;;;;;;14.93;9.67;;;;;;;19.27;24.01;95675.81;5031790;28;20454;-79
2022/03/27 11:09:02;;;;;;;14.30;9.20;;;;;;;19.29;25.78;95674.66;5031471;28;20473;-79
2022/03/27 11:12:04;;;;;;;13.90;10.23;;;;;;;19.26;24.82;95676.81;5031558;28;20533;-78
2022/03/27 11:14:55;;;;;;;15.13;11.50;;;;;;;19.35;25.77;95673.16;5031519;28;20453;-78
2022/03/27 11:17:52;;;;;;;16.67;10.10;;;;;;;19.42;26.58;95655.56;5032173;28;20447;-77
2022/03/27 11:20:47;;;;;;;16.03;10.97;;;;;;;19.34;25.14;95658.19;5031205;28;20439;-78
2022/03/27 11:23:28;;;;;;;22.73;11.43;;;;;;;19.29;24.96;95658.69;5031534;28;20513;-78
2022/03/27 11:25:55;;;;;;;18.35;11.57;;;;;;;19.30;24.17;95648.88;5030183;28;20453;-80
2022/03/27 11:31:45;;;;;;;20.97;12.20;;;;;;;19.43;24.69;95655.38;5030712;28;20512;-78
2022/03/27 11:34:21;;;;;;;20.17;11.27;;;;;;;19.49;24.16;95644.06;5031597;28;20482;-80
2022/03/27 11:37:04;;;;;;;17.43;12.10;;;;;;;19.49;24.38;95638.75;5031567;28;20446;-81
2022/03/27 11:39:33;;;;;;;24.00;13.40;;;;;;;19.43;24.00;95642.06;5028923;28;20489;-79
2022/03/27 11:42:39;;;;;;;15.77;10.90;;;;;;;19.36;24.48;95637.56;5031265;28;20501;-79
2022/03/27 11:45:37;;;;;;;17.97;11.73;;;;;;;19.31;23.90;95629.25;5010104;28;20452;-79
2022/03/27 11:48:15;;;;;;;22.20;13.97;;;;;;;19.21;24.47;95640.06;4933963;29;20502;-79
2022/03/27 11:50:42;;;;;;;19.00;14.77;;;;;;;19.16;25.12;95637.91;4918037;29;20542;-78
2022/03/27 11:53:09;;;;;;;22.73;14.77;;;;;;;19.14;24.64;95623.94;4934108;29;20447;-78
2022/03/27 11:55:37;;;;;;;26.63;13.37;;;;;;;19.04;23.93;95627.72;4927732;29;20546;-79
2022/03/27 12:04:56;;;;;;;32.17;17.33;;;;;;;19.17;24.48;95610.28;4934261;29;20558;-77
2022/03/27 12:07:25;;;;;;;28.70;16.17;;;;;;;19.21;24.54;95615.28;4937198;29;20499;-78
2022/03/27 12:09:59;;;;;;;33.57;19.43;;;;;;;19.32;25.02;95614.94;4923829;29;20447;-77
2022/03/27 12:12:27;;;;;;;34.17;19.90;;;;;;;19.38;25.16;95619.63;4937242;29;20459;-77